createdAt,value
2024-01-15T00:04:37.826Z,43.07
2024-01-15T00:09:41.221Z,44.99
2024-01-15T00:14:43.486Z,44.63
2024-01-15T00:19:45.195Z,45.72
2024-01-15T00:24:46.862Z,46.06
2024-01-15T00:29:49.269Z,45.51
2024-01-15T00:34:52.152Z,45.09
2024-01-15T00:39:53.989Z,44.89
2024-01-15T00:44:55.723Z,45.30
2024-01-15T00:49:57.372Z,45.70
2024-01-15T00:54:59.124Z,46.53
2024-01-15T01:00:02.949Z,46.66
2024-01-15T01:05:06.590Z,45.09
2024-01-15T01:10:08.539Z,46.42
2024-01-15T01:15:10.225Z,46.76
2024-01-15T01:20:13.280Z,44.53
2024-01-15T01:25:16.424Z,45.16
2024-01-15T01:30:18.252Z,45.41
2024-01-15T01:35:20.010Z,45.75
2024-01-15T01:40:21.664Z,46.50
2024-01-15T01:45:23.247Z,44.93
2024-01-15T01:50:25.067Z,46.25
2024-01-15T01:55:28.850Z,45.37
2024-01-15T02:00:32.266Z,45.74
2024-01-15T02:05:36.343Z,45.52
2024-01-15T02:10:37.984Z,46.29
2024-01-15T02:15:39.589Z,46.41
2024-01-15T02:20:41.319Z,45.37
2024-01-15T02:25:46.175Z,45.29
2024-01-15T02:30:48.070Z,45.49
2024-01-15T02:35:51.325Z,45.58
2024-01-15T02:40:52.951Z,45.74
2024-01-15T02:45:54.656Z,44.87
2024-01-15T02:50:56.348Z,45.80
2024-01-15T02:55:57.968Z,46.61
2024-01-15T03:00:59.768Z,45.21
2024-01-15T03:06:02.892Z,44.77
2024-01-15T03:11:04.627Z,45.55
2024-01-15T03:16:06.759Z,46.58
2024-01-15T03:21:08.459Z,46.11
2024-01-15T03:26:10.060Z,45.77
2024-01-15T03:31:11.781Z,45.24
2024-01-15T03:36:13.520Z,44.83
2024-01-15T03:41:15.156Z,45.34
2024-01-15T03:46:16.802Z,45.50
2024-01-15T03:51:19.312Z,45.00
2024-01-15T03:56:20.946Z,44.95
2024-01-15T04:01:22.593Z,44.50
2024-01-15T04:06:24.444Z,45.08
2024-01-15T04:11:26.156Z,43.56
2024-01-15T04:16:27.789Z,45.60
2024-01-15T04:21:29.489Z,45.46
2024-01-15T04:26:31.169Z,44.74
2024-01-15T04:31:32.863Z,44.70
2024-01-15T04:36:40.506Z,46.23
2024-01-15T04:41:42.236Z,45.34
2024-01-15T04:46:44.987Z,45.66
2024-01-15T04:51:46.768Z,42.88
2024-01-15T04:56:48.481Z,44.65
2024-01-15T05:01:50.264Z,43.29
2024-01-15T05:06:52.176Z,44.58
2024-01-15T05:11:53.834Z,43.85
2024-01-15T05:16:55.541Z,45.17
2024-01-15T05:21:57.240Z,43.82
2024-01-15T05:26:58.861Z,43.48
2024-01-15T05:32:02.449Z,45.29
2024-01-15T05:37:04.761Z,46.53
2024-01-15T05:42:06.502Z,46.72
2024-01-15T05:47:09.199Z,44.54
2024-01-15T05:52:10.885Z,45.93
2024-01-15T05:57:12.683Z,44.32
2024-01-15T06:02:14.421Z,46.15
2024-01-15T06:07:16.151Z,45.25
2024-01-15T06:12:17.804Z,44.73
2024-01-15T06:17:19.976Z,44.51
2024-01-15T06:22:21.716Z,44.53
2024-01-15T06:27:23.491Z,46.19
2024-01-15T06:32:25.251Z,45.46
2024-01-15T06:37:26.936Z,47.21
2024-01-15T06:42:28.585Z,47.31
2024-01-15T06:47:30.482Z,46.41
2024-01-15T06:52:32.203Z,46.57
2024-01-15T06:57:33.940Z,46.22
2024-01-15T07:02:35.672Z,46.26
2024-01-15T07:07:37.578Z,46.12
2024-01-15T07:12:39.310Z,45.16
2024-01-15T07:17:41.144Z,45.07
2024-01-15T07:22:42.879Z,47.02
2024-01-15T07:27:46.168Z,46.27
2024-01-15T07:32:48.045Z,46.31
2024-01-15T07:37:49.750Z,47.22
2024-01-15T07:42:52.064Z,46.09
2024-01-15T07:47:54.136Z,46.23
2024-01-15T07:52:55.851Z,46.46
2024-01-15T07:58:11.048Z,46.65
2024-01-15T08:03:17.169Z,45.61
2024-01-15T08:08:19.867Z,45.27
2024-01-15T08:13:21.896Z,45.83
2024-01-15T08:18:23.677Z,45.02
2024-01-15T08:23:25.959Z,45.89
2024-01-15T08:28:27.589Z,47.33
2024-01-15T08:33:29.506Z,47.66
2024-01-15T08:38:31.274Z,46.47
2024-01-15T08:43:32.983Z,46.64
2024-01-15T08:48:34.794Z,48.29
2024-01-15T08:53:36.626Z,45.30
2024-01-15T08:58:38.348Z,46.81
2024-01-15T09:03:41.268Z,46.75
2024-01-15T09:08:42.989Z,46.26
2024-01-15T09:13:44.628Z,45.52
2024-01-15T09:18:48.240Z,45.67
2024-01-15T09:23:50.153Z,44.35
2024-01-15T09:28:53.023Z,43.26
2024-01-15T09:33:57.460Z,42.91
2024-01-15T09:38:59.274Z,43.68
2024-01-15T09:44:00.970Z,44.80
2024-01-15T09:49:03.323Z,44.27
2024-01-15T09:54:06.060Z,43.71
2024-01-15T09:59:08.253Z,44.97
2024-01-15T10:04:10.058Z,45.29
2024-01-15T10:09:15.633Z,45.62
2024-01-15T10:14:17.390Z,46.77
2024-01-15T10:19:19.226Z,46.31
2024-01-15T10:24:21.175Z,48.72
2024-01-15T10:29:22.819Z,48.88
2024-01-15T10:34:24.585Z,48.54
2024-01-15T10:39:26.498Z,48.55
2024-01-15T10:44:28.399Z,50.50
2024-01-15T10:49:33.217Z,49.52
2024-01-15T10:54:38.533Z,51.74
2024-01-15T10:59:40.410Z,50.47
2024-01-15T11:06:23.755Z,52.31
2024-01-15T11:11:27.267Z,53.32
2024-01-15T11:16:57.433Z,52.62
2024-01-15T11:21:59.090Z,54.17
2024-01-15T11:27:00.789Z,51.15
2024-01-15T11:32:05.928Z,53.14
2024-01-15T11:37:08.164Z,52.26
2024-01-15T11:42:11.684Z,52.43
2024-01-15T11:47:16.352Z,51.75
2024-01-15T11:52:19.945Z,51.17
2024-01-15T11:57:33.610Z,50.58
2024-01-15T12:02:35.601Z,52.56
2024-01-15T12:07:37.256Z,52.83
2024-01-15T12:13:01.204Z,52.35
2024-01-15T12:18:04.076Z,50.86
2024-01-15T12:23:10.505Z,50.86
2024-01-15T12:28:12.490Z,52.14
2024-01-15T12:33:14.154Z,51.03
2024-01-15T12:38:15.832Z,52.00
2024-01-15T12:43:18.722Z,51.04
2024-01-15T12:48:20.517Z,51.53
2024-01-15T12:53:22.926Z,51.85
2024-01-15T12:58:24.539Z,50.49
2024-01-15T13:03:26.157Z,52.74
2024-01-15T13:08:29.641Z,51.20
2024-01-15T13:13:32.541Z,52.31
2024-01-15T13:18:34.319Z,51.38
2024-01-15T13:23:35.995Z,52.16
2024-01-15T13:28:37.621Z,51.20
2024-01-15T13:33:42.605Z,50.21
2024-01-15T13:38:46.265Z,49.39
2024-01-15T13:43:50.515Z,51.28
2024-01-15T13:48:52.329Z,50.90
2024-01-15T13:53:54.206Z,50.96
2024-01-15T13:58:55.833Z,52.24
2024-01-15T14:03:57.531Z,52.07
2024-01-15T14:08:59.153Z,50.96
2024-01-15T14:14:00.704Z,50.13
2024-01-15T14:19:03.978Z,51.20
2024-01-15T14:24:06.242Z,50.84
2024-01-15T14:29:08.587Z,50.39
2024-01-15T14:34:10.420Z,50.13
2024-01-15T14:39:12.198Z,49.43
2024-01-15T14:44:13.854Z,48.72
2024-01-15T14:49:16.098Z,48.58
2024-01-15T14:54:17.847Z,47.40
2024-01-15T15:05:19.326Z,50.60
2024-01-15T15:10:20.941Z,49.83
2024-01-15T15:15:23.914Z,50.69
2024-01-15T15:20:26.820Z,49.76
2024-01-15T15:25:28.524Z,50.88
2024-01-15T15:30:30.213Z,49.89
2024-01-15T15:35:31.909Z,49.77
2024-01-15T15:40:33.541Z,49.55
2024-01-15T15:45:35.276Z,49.19
2024-01-15T15:50:37.928Z,49.15
2024-01-15T15:55:40.357Z,49.42
2024-01-15T16:00:42.050Z,50.13
2024-01-15T16:05:51.806Z,48.95
2024-01-15T16:10:56.611Z,49.35
2024-01-15T16:23:08.855Z,48.76
2024-01-15T16:23:36.022Z,49.47
2024-01-15T16:26:42.711Z,48.12
2024-01-15T16:31:44.848Z,49.20
2024-01-15T16:36:46.817Z,48.11
2024-01-15T16:41:48.773Z,48.52
2024-01-15T16:46:50.411Z,47.62
2024-01-15T16:51:52.404Z,47.24
2024-01-15T16:56:53.989Z,47.98
2024-01-15T17:01:55.627Z,47.29
2024-01-15T17:06:57.500Z,48.75
2024-01-15T17:11:59.132Z,46.81
2024-01-15T17:17:00.801Z,47.46
2024-01-15T17:22:02.442Z,47.70
2024-01-15T17:27:04.414Z,47.23
2024-01-15T17:32:06.160Z,47.07
2024-01-15T17:37:07.810Z,47.35
2024-01-15T17:42:10.384Z,45.81
2024-01-15T17:47:12.114Z,46.81
2024-01-15T17:52:13.725Z,46.04
2024-01-15T17:57:15.374Z,46.91
2024-01-15T18:02:16.990Z,46.31
2024-01-15T18:07:21.182Z,47.76
2024-01-15T18:12:22.885Z,48.59
2024-01-15T18:17:24.930Z,46.49
2024-01-15T18:22:26.684Z,48.27
2024-01-15T18:27:29.425Z,47.65
2024-01-15T18:32:31.096Z,45.92
2024-01-15T18:37:33.304Z,47.21
2024-01-15T18:42:35.619Z,46.87
2024-01-15T18:47:37.811Z,45.18
2024-01-15T18:52:39.506Z,46.15
2024-01-15T18:57:44.827Z,47.68
2024-01-15T19:02:46.474Z,45.60
2024-01-15T19:07:48.109Z,45.65
2024-01-15T19:12:49.959Z,46.47
2024-01-15T19:17:51.737Z,46.37
2024-01-15T19:22:53.742Z,45.91
2024-01-15T19:27:55.741Z,45.37
2024-01-15T19:32:57.599Z,45.39
2024-01-15T19:37:59.454Z,46.35
2024-01-15T19:43:02.433Z,45.96
2024-01-15T19:48:05.322Z,45.60
2024-01-15T19:53:07.129Z,45.37
2024-01-15T19:58:08.823Z,45.82
2024-01-15T20:03:10.453Z,46.96
2024-01-15T20:08:12.117Z,45.75
2024-01-15T20:13:13.781Z,46.05
2024-01-15T20:18:15.557Z,45.29
2024-01-15T20:23:19.075Z,46.14
2024-01-15T20:28:21.949Z,46.27
2024-01-15T20:33:23.630Z,45.60
2024-01-15T20:38:25.417Z,44.55
2024-01-15T20:43:27.195Z,44.19
2024-01-15T20:48:29.423Z,45.03
2024-01-15T20:53:31.228Z,45.21
2024-01-15T20:58:32.933Z,44.98
2024-01-15T21:03:35.802Z,45.62
2024-01-15T21:08:37.496Z,45.68
2024-01-15T21:13:39.495Z,44.50
2024-01-15T21:18:41.884Z,44.07
2024-01-15T21:23:43.575Z,43.80
2024-01-15T21:28:45.256Z,44.84
2024-01-15T21:33:47.235Z,44.33
2024-01-15T21:38:48.969Z,43.51
2024-01-15T21:43:50.587Z,44.99
2024-01-15T21:48:52.421Z,44.79
2024-01-15T21:53:54.189Z,45.21
2024-01-15T21:58:55.820Z,45.37
2024-01-15T22:03:57.534Z,45.91
2024-01-15T22:08:59.182Z,45.07
2024-01-15T22:14:00.861Z,45.77
2024-01-15T22:19:03.035Z,46.51
2024-01-15T22:24:05.207Z,46.18
2024-01-15T22:29:07.456Z,45.79
2024-01-15T22:34:09.210Z,46.86
2024-01-15T22:39:10.933Z,45.19
2024-01-15T22:44:12.722Z,44.35
2024-01-15T22:49:14.430Z,46.26
2024-01-15T22:54:16.222Z,45.50
2024-01-15T22:59:22.927Z,45.30
2024-01-15T23:04:25.014Z,44.04
2024-01-15T23:09:26.696Z,46.61
2024-01-15T23:14:28.586Z,47.18
2024-01-15T23:19:30.252Z,48.46
2024-01-15T23:24:31.855Z,49.37
2024-01-15T23:29:33.575Z,48.47
2024-01-15T23:34:38.334Z,45.59
2024-01-15T23:39:40.136Z,45.92
2024-01-15T23:44:42.077Z,47.90
2024-01-15T23:49:43.907Z,43.98
2024-01-15T23:54:45.586Z,43.69
2024-01-15T23:59:47.266Z,44.98
